sensor_id;sensor_type;location;lat;lon;timestamp;P1;durP1;ratioP1;P2;durP2;ratioP2
13807;SDS011;40769;51.512;5.494;2024-03-29T00:00:41;1.17;;;0.60;;
13807;SDS011;40769;51.512;5.494;2024-03-29T00:03:10;2.80;;;0.60;;
13807;SDS011;40769;51.512;5.494;2024-03-29T00:05:36;0.80;;;0.60;;
13807;SDS011;40769;51.512;5.494;2024-03-29T00:08:05;1.00;;;0.60;;
13807;SDS011;40769;51.512;5.494;2024-03-29T00:10:31;0.55;;;0.50;;
13807;SDS011;40769;51.512;5.494;2024-03-29T00:12:58;1.30;;;0.75;;
13807;SDS011;40769;51.512;5.494;2024-03-29T00:15:24;1.40;;;0.82;;
13807;SDS011;40769;51.512;5.494;2024-03-29T00:17:49;1.10;;;0.63;;
13807;SDS011;40769;51.512;5.494;2024-03-29T00:20:15;1.30;;;0.80;;
13807;SDS011;40769;51.512;5.494;2024-03-29T00:22:41;0.80;;;0.65;;
13807;SDS011;40769;51.512;5.494;2024-03-29T00:25:07;1.05;;;0.52;;
13807;SDS011;40769;51.512;5.494;2024-03-29T00:27:33;0.60;;;0.50;;
13807;SDS011;40769;51.512;5.494;2024-03-29T00:29:58;1.00;;;0.60;;
13807;SDS011;40769;51.512;5.494;2024-03-29T00:32:25;1.70;;;0.63;;
13807;SDS011;40769;51.512;5.494;2024-03-29T00:34:51;0.98;;;0.60;;
13807;SDS011;40769;51.512;5.494;2024-03-29T00:37:17;0.95;;;0.50;;
13807;SDS011;40769;51.512;5.494;2024-03-29T00:39:43;0.60;;;0.50;;
13807;SDS011;40769;51.512;5.494;2024-03-29T00:42:09;1.75;;;0.73;;
13807;SDS011;40769;51.512;5.494;2024-03-29T00:44:37;0.75;;;0.40;;
13807;SDS011;40769;51.512;5.494;2024-03-29T00:47:04;0.93;;;0.60;;
13807;SDS011;40769;51.512;5.494;2024-03-29T00:49:30;1.45;;;0.70;;
13807;SDS011;40769;51.512;5.494;2024-03-29T00:51:56;1.05;;;0.55;;
13807;SDS011;40769;51.512;5.494;2024-03-29T00:54:21;0.98;;;0.50;;
13807;SDS011;40769;51.512;5.494;2024-03-29T00:56:50;1.40;;;0.68;;
13807;SDS011;40769;51.512;5.494;2024-03-29T00:59:16;1.67;;;0.55;;
13807;SDS011;40769;51.512;5.494;2024-03-29T01:01:42;0.90;;;0.50;;
13807;SDS011;40769;51.512;5.494;2024-03-29T01:04:08;1.85;;;0.75;;
13807;SDS011;40769;51.512;5.494;2024-03-29T01:06:33;0.90;;;0.60;;
13807;SDS011;40769;51.512;5.494;2024-03-29T01:09:00;0.75;;;0.60;;
13807;SDS011;40769;51.512;5.494;2024-03-29T01:11:26;1.45;;;0.65;;
13807;SDS011;40769;51.512;5.494;2024-03-29T01:13:52;1.20;;;0.60;;
13807;SDS011;40769;51.512;5.494;2024-03-29T01:16:18;0.90;;;0.60;;
13807;SDS011;40769;51.512;5.494;2024-03-29T01:18:43;1.40;;;0.65;;
13807;SDS011;40769;51.512;5.494;2024-03-29T01:21:09;1.38;;;0.60;;
13807;SDS011;40769;51.512;5.494;2024-03-29T01:23:34;1.65;;;0.50;;
13807;SDS011;40769;51.512;5.494;2024-03-29T01:26:00;0.98;;;0.50;;
13807;SDS011;40769;51.512;5.494;2024-03-29T01:28:26;0.80;;;0.60;;
13807;SDS011;40769;51.512;5.494;2024-03-29T01:30:52;0.90;;;0.60;;
13807;SDS011;40769;51.512;5.494;2024-03-29T01:33:19;0.45;;;0.30;;
13807;SDS011;40769;51.512;5.494;2024-03-29T01:35:46;0.63;;;0.40;;
13807;SDS011;40769;51.512;5.494;2024-03-29T01:38:12;0.70;;;0.68;;
13807;SDS011;40769;51.512;5.494;2024-03-29T01:40:37;0.73;;;0.50;;
13807;SDS011;40769;51.512;5.494;2024-03-29T01:43:03;0.70;;;0.50;;
13807;SDS011;40769;51.512;5.494;2024-03-29T01:45:29;1.35;;;0.60;;
13807;SDS011;40769;51.512;5.494;2024-03-29T01:47:56;1.80;;;0.77;;
13807;SDS011;40769;51.512;5.494;2024-03-29T01:50:21;1.77;;;0.80;;
13807;SDS011;40769;51.512;5.494;2024-03-29T01:52:47;1.48;;;0.70;;
13807;SDS011;40769;51.512;5.494;2024-03-29T01:55:15;0.52;;;0.43;;
13807;SDS011;40769;51.512;5.494;2024-03-29T01:57:41;0.68;;;0.57;;
13807;SDS011;40769;51.512;5.494;2024-03-29T02:00:07;1.35;;;0.70;;
13807;SDS011;40769;51.512;5.494;2024-03-29T02:02:33;1.00;;;0.63;;
13807;SDS011;40769;51.512;5.494;2024-03-29T02:04:59;0.90;;;0.70;;
13807;SDS011;40769;51.512;5.494;2024-03-29T02:07:25;1.60;;;0.70;;
13807;SDS011;40769;51.512;5.494;2024-03-29T02:09:50;1.30;;;0.82;;
13807;SDS011;40769;51.512;5.494;2024-03-29T02:12:16;0.90;;;0.60;;
13807;SDS011;40769;51.512;5.494;2024-03-29T02:14:42;1.52;;;0.60;;
13807;SDS011;40769;51.512;5.494;2024-03-29T02:17:08;1.58;;;0.80;;
13807;SDS011;40769;51.512;5.494;2024-03-29T02:19:34;0.80;;;0.50;;
13807;SDS011;40769;51.512;5.494;2024-03-29T02:22:00;1.25;;;0.65;;
13807;SDS011;40769;51.512;5.494;2024-03-29T02:24:26;1.33;;;0.40;;
13807;SDS011;40769;51.512;5.494;2024-03-29T02:26:53;0.47;;;0.30;;
13807;SDS011;40769;51.512;5.494;2024-03-29T02:29:21;1.20;;;0.70;;
13807;SDS011;40769;51.512;5.494;2024-03-29T02:31:46;0.68;;;0.30;;
13807;SDS011;40769;51.512;5.494;2024-03-29T02:34:12;1.27;;;0.80;;
13807;SDS011;40769;51.512;5.494;2024-03-29T02:36:38;0.57;;;0.50;;
13807;SDS011;40769;51.512;5.494;2024-03-29T02:39:04;0.57;;;0.40;;
13807;SDS011;40769;51.512;5.494;2024-03-29T02:41:30;1.58;;;0.63;;
13807;SDS011;40769;51.512;5.494;2024-03-29T02:43:56;1.27;;;0.60;;
13807;SDS011;40769;51.512;5.494;2024-03-29T02:46:21;1.30;;;0.85;;
13807;SDS011;40769;51.512;5.494;2024-03-29T02:48:48;1.13;;;0.63;;
13807;SDS011;40769;51.512;5.494;2024-03-29T02:51:14;0.80;;;0.40;;
13807;SDS011;40769;51.512;5.494;2024-03-29T02:53:39;1.30;;;0.60;;
13807;SDS011;40769;51.512;5.494;2024-03-29T02:56:05;0.60;;;0.40;;
13807;SDS011;40769;51.512;5.494;2024-03-29T02:58:34;1.20;;;0.60;;
13807;SDS011;40769;51.512;5.494;2024-03-29T03:01:07;1.48;;;0.40;;
13807;SDS011;40769;51.512;5.494;2024-03-29T03:03:33;1.10;;;0.65;;
13807;SDS011;40769;51.512;5.494;2024-03-29T03:05:58;1.45;;;0.70;;
13807;SDS011;40769;51.512;5.494;2024-03-29T03:08:24;0.70;;;0.60;;
13807;SDS011;40769;51.512;5.494;2024-03-29T03:11:08;0.63;;;0.38;;
13807;SDS011;40769;51.512;5.494;2024-03-29T03:13:34;1.17;;;0.60;;
13807;SDS011;40769;51.512;5.494;2024-03-29T03:15:59;1.02;;;0.52;;
13807;SDS011;40769;51.512;5.494;2024-03-29T03:18:25;1.10;;;0.60;;
13807;SDS011;40769;51.512;5.494;2024-03-29T03:20:51;0.98;;;0.60;;
13807;SDS011;40769;51.512;5.494;2024-03-29T03:23:17;0.70;;;0.45;;
13807;SDS011;40769;51.512;5.494;2024-03-29T03:25:43;0.60;;;0.50;;
13807;SDS011;40769;51.512;5.494;2024-03-29T03:28:09;1.25;;;0.60;;
13807;SDS011;40769;51.512;5.494;2024-03-29T03:30:37;1.23;;;0.50;;
13807;SDS011;40769;51.512;5.494;2024-03-29T03:33:05;0.70;;;0.60;;
13807;SDS011;40769;51.512;5.494;2024-03-29T03:35:31;0.75;;;0.40;;
13807;SDS011;40769;51.512;5.494;2024-03-29T03:37:57;0.93;;;0.63;;
13807;SDS011;40769;51.512;5.494;2024-03-29T03:40:23;1.17;;;0.50;;
13807;SDS011;40769;51.512;5.494;2024-03-29T03:42:49;0.50;;;0.43;;
13807;SDS011;40769;51.512;5.494;2024-03-29T03:45:14;0.90;;;0.32;;
13807;SDS011;40769;51.512;5.494;2024-03-29T03:47:43;0.65;;;0.60;;
13807;SDS011;40769;51.512;5.494;2024-03-29T03:50:09;0.70;;;0.40;;
13807;SDS011;40769;51.512;5.494;2024-03-29T03:52:34;0.50;;;0.50;;
13807;SDS011;40769;51.512;5.494;2024-03-29T03:55:00;0.70;;;0.40;;
13807;SDS011;40769;51.512;5.494;2024-03-29T03:57:26;0.90;;;0.50;;
13807;SDS011;40769;51.512;5.494;2024-03-29T03:59:51;0.88;;;0.50;;
13807;SDS011;40769;51.512;5.494;2024-03-29T04:02:17;0.50;;;0.30;;
13807;SDS011;40769;51.512;5.494;2024-03-29T04:04:42;0.68;;;0.40;;
13807;SDS011;40769;51.512;5.494;2024-03-29T04:07:12;1.17;;;0.60;;
13807;SDS011;40769;51.512;5.494;2024-03-29T04:09:38;0.88;;;0.50;;
13807;SDS011;40769;51.512;5.494;2024-03-29T04:12:04;0.85;;;0.43;;
13807;SDS011;40769;51.512;5.494;2024-03-29T04:14:29;1.08;;;0.70;;
13807;SDS011;40769;51.512;5.494;2024-03-29T04:16:55;1.02;;;0.30;;
13807;SDS011;40769;51.512;5.494;2024-03-29T04:19:21;0.60;;;0.50;;
13807;SDS011;40769;51.512;5.494;2024-03-29T04:21:46;0.75;;;0.40;;
13807;SDS011;40769;51.512;5.494;2024-03-29T04:24:12;0.70;;;0.52;;
13807;SDS011;40769;51.512;5.494;2024-03-29T04:26:38;0.60;;;0.50;;
13807;SDS011;40769;51.512;5.494;2024-03-29T04:29:04;0.50;;;0.40;;
13807;SDS011;40769;51.512;5.494;2024-03-29T04:31:30;0.50;;;0.30;;
13807;SDS011;40769;51.512;5.494;2024-03-29T04:33:56;1.15;;;0.47;;
13807;SDS011;40769;51.512;5.494;2024-03-29T04:36:21;0.90;;;0.60;;
13807;SDS011;40769;51.512;5.494;2024-03-29T04:38:47;0.77;;;0.40;;
13807;SDS011;40769;51.512;5.494;2024-03-29T04:41:13;0.40;;;0.30;;
13807;SDS011;40769;51.512;5.494;2024-03-29T04:43:39;0.57;;;0.57;;
13807;SDS011;40769;51.512;5.494;2024-03-29T04:46:12;0.50;;;0.30;;
13807;SDS011;40769;51.512;5.494;2024-03-29T04:48:39;0.80;;;0.55;;
13807;SDS011;40769;51.512;5.494;2024-03-29T04:51:08;0.85;;;0.40;;
13807;SDS011;40769;51.512;5.494;2024-03-29T04:53:35;0.43;;;0.30;;
13807;SDS011;40769;51.512;5.494;2024-03-29T04:56:01;1.05;;;0.50;;
13807;SDS011;40769;51.512;5.494;2024-03-29T04:58:28;0.68;;;0.40;;
13807;SDS011;40769;51.512;5.494;2024-03-29T05:00:53;0.60;;;0.50;;
13807;SDS011;40769;51.512;5.494;2024-03-29T05:03:20;0.50;;;0.40;;
13807;SDS011;40769;51.512;5.494;2024-03-29T05:05:46;1.38;;;0.73;;
13807;SDS011;40769;51.512;5.494;2024-03-29T05:08:13;0.85;;;0.40;;
13807;SDS011;40769;51.512;5.494;2024-03-29T05:10:39;0.50;;;0.50;;
13807;SDS011;40769;51.512;5.494;2024-03-29T05:13:05;1.08;;;0.60;;
13807;SDS011;40769;51.512;5.494;2024-03-29T05:15:31;0.57;;;0.40;;
13807;SDS011;40769;51.512;5.494;2024-03-29T05:17:57;0.80;;;0.68;;
13807;SDS011;40769;51.512;5.494;2024-03-29T05:20:23;1.25;;;0.30;;
13807;SDS011;40769;51.512;5.494;2024-03-29T05:22:48;0.30;;;0.30;;
13807;SDS011;40769;51.512;5.494;2024-03-29T05:25:14;0.57;;;0.40;;
13807;SDS011;40769;51.512;5.494;2024-03-29T05:27:39;0.75;;;0.35;;
13807;SDS011;40769;51.512;5.494;2024-03-29T05:30:05;0.70;;;0.50;;
13807;SDS011;40769;51.512;5.494;2024-03-29T05:32:32;0.40;;;0.40;;
13807;SDS011;40769;51.512;5.494;2024-03-29T05:34:57;0.70;;;0.70;;
13807;SDS011;40769;51.512;5.494;2024-03-29T05:37:23;0.47;;;0.45;;
13807;SDS011;40769;51.512;5.494;2024-03-29T05:39:52;0.70;;;0.50;;
13807;SDS011;40769;51.512;5.494;2024-03-29T05:42:27;0.60;;;0.45;;
13807;SDS011;40769;51.512;5.494;2024-03-29T05:44:54;0.60;;;0.50;;
13807;SDS011;40769;51.512;5.494;2024-03-29T05:47:20;0.77;;;0.30;;
13807;SDS011;40769;51.512;5.494;2024-03-29T05:49:46;0.50;;;0.40;;
13807;SDS011;40769;51.512;5.494;2024-03-29T05:52:12;0.50;;;0.30;;
13807;SDS011;40769;51.512;5.494;2024-03-29T05:54:41;0.60;;;0.40;;
13807;SDS011;40769;51.512;5.494;2024-03-29T05:57:08;0.40;;;0.30;;
13807;SDS011;40769;51.512;5.494;2024-03-29T05:59:34;0.65;;;0.30;;
13807;SDS011;40769;51.512;5.494;2024-03-29T06:02:03;0.90;;;0.30;;
13807;SDS011;40769;51.512;5.494;2024-03-29T06:04:29;0.50;;;0.32;;
13807;SDS011;40769;51.512;5.494;2024-03-29T06:07:03;0.40;;;0.30;;
13807;SDS011;40769;51.512;5.494;2024-03-29T06:09:29;0.50;;;0.30;;
13807;SDS011;40769;51.512;5.494;2024-03-29T06:11:58;0.90;;;0.50;;
13807;SDS011;40769;51.512;5.494;2024-03-29T06:14:24;0.60;;;0.30;;
13807;SDS011;40769;51.512;5.494;2024-03-29T06:17:08;0.57;;;0.30;;
13807;SDS011;40769;51.512;5.494;2024-03-29T06:19:53;0.70;;;0.40;;
13807;SDS011;40769;51.512;5.494;2024-03-29T06:22:24;0.50;;;0.40;;
13807;SDS011;40769;51.512;5.494;2024-03-29T06:24:51;0.75;;;0.30;;
13807;SDS011;40769;51.512;5.494;2024-03-29T06:27:20;0.45;;;0.30;;
13807;SDS011;40769;51.512;5.494;2024-03-29T06:29:49;1.00;;;0.40;;
13807;SDS011;40769;51.512;5.494;2024-03-29T06:32:15;0.60;;;0.30;;
13807;SDS011;40769;51.512;5.494;2024-03-29T06:34:43;0.32;;;0.30;;
13807;SDS011;40769;51.512;5.494;2024-03-29T06:37:10;0.40;;;0.40;;
13807;SDS011;40769;51.512;5.494;2024-03-29T06:39:35;0.30;;;0.30;;
13807;SDS011;40769;51.512;5.494;2024-03-29T06:42:01;0.50;;;0.40;;
13807;SDS011;40769;51.512;5.494;2024-03-29T06:44:27;0.65;;;0.40;;
13807;SDS011;40769;51.512;5.494;2024-03-29T06:46:52;0.50;;;0.40;;
13807;SDS011;40769;51.512;5.494;2024-03-29T06:49:19;0.50;;;0.30;;
13807;SDS011;40769;51.512;5.494;2024-03-29T06:51:44;0.40;;;0.30;;
13807;SDS011;40769;51.512;5.494;2024-03-29T06:54:10;0.85;;;0.40;;
13807;SDS011;40769;51.512;5.494;2024-03-29T06:56:35;1.33;;;0.65;;
13807;SDS011;40769;51.512;5.494;2024-03-29T06:59:01;0.80;;;0.50;;
13807;SDS011;40769;51.512;5.494;2024-03-29T07:01:27;0.70;;;0.40;;
13807;SDS011;40769;51.512;5.494;2024-03-29T07:03:53;0.50;;;0.32;;
13807;SDS011;40769;51.512;5.494;2024-03-29T07:06:18;0.50;;;0.40;;
13807;SDS011;40769;51.512;5.494;2024-03-29T07:08:44;0.43;;;0.38;;
13807;SDS011;40769;51.512;5.494;2024-03-29T07:11:10;0.40;;;0.40;;
13807;SDS011;40769;51.512;5.494;2024-03-29T07:13:35;0.50;;;0.30;;
13807;SDS011;40769;51.512;5.494;2024-03-29T07:16:02;0.45;;;0.40;;
13807;SDS011;40769;51.512;5.494;2024-03-29T07:18:28;0.50;;;0.50;;
13807;SDS011;40769;51.512;5.494;2024-03-29T07:20:54;0.50;;;0.40;;
13807;SDS011;40769;51.512;5.494;2024-03-29T07:23:19;0.75;;;0.50;;
13807;SDS011;40769;51.512;5.494;2024-03-29T07:25:45;0.82;;;0.45;;
13807;SDS011;40769;51.512;5.494;2024-03-29T07:28:21;0.57;;;0.40;;
13807;SDS011;40769;51.512;5.494;2024-03-29T07:30:47;0.73;;;0.35;;
13807;SDS011;40769;51.512;5.494;2024-03-29T07:33:15;0.57;;;0.50;;
13807;SDS011;40769;51.512;5.494;2024-03-29T07:35:41;1.27;;;0.57;;
13807;SDS011;40769;51.512;5.494;2024-03-29T07:38:07;0.60;;;0.50;;
13807;SDS011;40769;51.512;5.494;2024-03-29T07:40:33;0.65;;;0.40;;
13807;SDS011;40769;51.512;5.494;2024-03-29T07:42:59;0.57;;;0.40;;
13807;SDS011;40769;51.512;5.494;2024-03-29T07:45:25;0.50;;;0.50;;
13807;SDS011;40769;51.512;5.494;2024-03-29T07:47:52;0.85;;;0.40;;
13807;SDS011;40769;51.512;5.494;2024-03-29T07:50:18;0.47;;;0.47;;
13807;SDS011;40769;51.512;5.494;2024-03-29T07:52:44;0.65;;;0.40;;
13807;SDS011;40769;51.512;5.494;2024-03-29T07:55:10;0.63;;;0.60;;
13807;SDS011;40769;51.512;5.494;2024-03-29T07:57:36;0.80;;;0.50;;
13807;SDS011;40769;51.512;5.494;2024-03-29T08:00:02;0.70;;;0.30;;
13807;SDS011;40769;51.512;5.494;2024-03-29T08:02:28;0.88;;;0.55;;
13807;SDS011;40769;51.512;5.494;2024-03-29T08:04:55;0.90;;;0.68;;
13807;SDS011;40769;51.512;5.494;2024-03-29T08:07:20;0.57;;;0.57;;
13807;SDS011;40769;51.512;5.494;2024-03-29T08:09:46;2.50;;;0.50;;
13807;SDS011;40769;51.512;5.494;2024-03-29T08:12:12;0.60;;;0.50;;
13807;SDS011;40769;51.512;5.494;2024-03-29T08:14:37;1.33;;;0.50;;
13807;SDS011;40769;51.512;5.494;2024-03-29T08:17:03;0.88;;;0.63;;
13807;SDS011;40769;51.512;5.494;2024-03-29T08:19:32;0.80;;;0.63;;
13807;SDS011;40769;51.512;5.494;2024-03-29T08:22:01;0.55;;;0.55;;
13807;SDS011;40769;51.512;5.494;2024-03-29T08:24:27;0.98;;;0.50;;
13807;SDS011;40769;51.512;5.494;2024-03-29T08:26:53;0.93;;;0.60;;
13807;SDS011;40769;51.512;5.494;2024-03-29T08:29:19;1.55;;;0.70;;
13807;SDS011;40769;51.512;5.494;2024-03-29T08:31:44;1.08;;;0.80;;
13807;SDS011;40769;51.512;5.494;2024-03-29T08:34:10;0.60;;;0.60;;
13807;SDS011;40769;51.512;5.494;2024-03-29T08:36:38;1.05;;;0.57;;
13807;SDS011;40769;51.512;5.494;2024-03-29T08:39:07;0.68;;;0.60;;
13807;SDS011;40769;51.512;5.494;2024-03-29T08:41:32;0.63;;;0.50;;
13807;SDS011;40769;51.512;5.494;2024-03-29T08:43:58;0.60;;;0.60;;
13807;SDS011;40769;51.512;5.494;2024-03-29T08:46:23;1.02;;;0.80;;
13807;SDS011;40769;51.512;5.494;2024-03-29T08:48:49;1.23;;;1.10;;
13807;SDS011;40769;51.512;5.494;2024-03-29T08:51:15;1.48;;;0.95;;
13807;SDS011;40769;51.512;5.494;2024-03-29T08:53:41;1.10;;;1.00;;
13807;SDS011;40769;51.512;5.494;2024-03-29T08:56:06;1.05;;;0.95;;
13807;SDS011;40769;51.512;5.494;2024-03-29T08:58:32;1.10;;;1.00;;
13807;SDS011;40769;51.512;5.494;2024-03-29T09:00:57;1.00;;;0.90;;
13807;SDS011;40769;51.512;5.494;2024-03-29T09:03:23;1.20;;;1.10;;
13807;SDS011;40769;51.512;5.494;2024-03-29T09:05:49;1.38;;;0.80;;
13807;SDS011;40769;51.512;5.494;2024-03-29T09:08:18;1.45;;;0.85;;
13807;SDS011;40769;51.512;5.494;2024-03-29T09:10:44;0.80;;;0.70;;
13807;SDS011;40769;51.512;5.494;2024-03-29T09:13:10;1.05;;;0.90;;
13807;SDS011;40769;51.512;5.494;2024-03-29T09:15:36;0.80;;;0.80;;
13807;SDS011;40769;51.512;5.494;2024-03-29T09:18:02;1.02;;;0.93;;
13807;SDS011;40769;51.512;5.494;2024-03-29T09:20:36;1.23;;;1.00;;
13807;SDS011;40769;51.512;5.494;2024-03-29T09:23:02;1.35;;;0.93;;
13807;SDS011;40769;51.512;5.494;2024-03-29T09:25:29;1.20;;;1.10;;
13807;SDS011;40769;51.512;5.494;2024-03-29T09:27:55;1.23;;;0.80;;
13807;SDS011;40769;51.512;5.494;2024-03-29T09:30:20;1.20;;;1.00;;
13807;SDS011;40769;51.512;5.494;2024-03-29T09:32:47;1.33;;;1.10;;
13807;SDS011;40769;51.512;5.494;2024-03-29T09:35:15;1.80;;;1.15;;
13807;SDS011;40769;51.512;5.494;2024-03-29T09:37:42;0.90;;;0.80;;
13807;SDS011;40769;51.512;5.494;2024-03-29T09:40:08;1.80;;;1.10;;
13807;SDS011;40769;51.512;5.494;2024-03-29T09:42:35;1.40;;;1.00;;
13807;SDS011;40769;51.512;5.494;2024-03-29T09:45:04;1.10;;;1.00;;
13807;SDS011;40769;51.512;5.494;2024-03-29T09:47:31;1.20;;;1.10;;
13807;SDS011;40769;51.512;5.494;2024-03-29T09:49:59;1.33;;;1.00;;
13807;SDS011;40769;51.512;5.494;2024-03-29T09:52:28;1.25;;;1.05;;
13807;SDS011;40769;51.512;5.494;2024-03-29T09:54:55;1.15;;;1.05;;
13807;SDS011;40769;51.512;5.494;2024-03-29T09:57:21;1.02;;;0.93;;
13807;SDS011;40769;51.512;5.494;2024-03-29T09:59:49;1.42;;;0.82;;
13807;SDS011;40769;51.512;5.494;2024-03-29T10:02:15;1.33;;;1.00;;
13807;SDS011;40769;51.512;5.494;2024-03-29T10:04:45;1.20;;;1.10;;
13807;SDS011;40769;51.512;5.494;2024-03-29T10:07:13;1.58;;;1.20;;
13807;SDS011;40769;51.512;5.494;2024-03-29T10:09:41;2.15;;;1.10;;
13807;SDS011;40769;51.512;5.494;2024-03-29T10:12:08;1.40;;;1.20;;
13807;SDS011;40769;51.512;5.494;2024-03-29T10:14:48;1.08;;;0.80;;
13807;SDS011;40769;51.512;5.494;2024-03-29T10:17:18;0.98;;;0.80;;
13807;SDS011;40769;51.512;5.494;2024-03-29T10:19:44;1.63;;;1.00;;
13807;SDS011;40769;51.512;5.494;2024-03-29T10:22:10;1.00;;;0.90;;
13807;SDS011;40769;51.512;5.494;2024-03-29T10:24:36;0.75;;;0.73;;
13807;SDS011;40769;51.512;5.494;2024-03-29T10:27:02;1.55;;;0.85;;
13807;SDS011;40769;51.512;5.494;2024-03-29T10:29:28;1.00;;;0.77;;
13807;SDS011;40769;51.512;5.494;2024-03-29T10:31:57;0.95;;;0.80;;
13807;SDS011;40769;51.512;5.494;2024-03-29T10:34:26;1.17;;;0.95;;
13807;SDS011;40769;51.512;5.494;2024-03-29T10:36:54;0.70;;;0.70;;
13807;SDS011;40769;51.512;5.494;2024-03-29T10:39:20;1.83;;;1.10;;
13807;SDS011;40769;51.512;5.494;2024-03-29T10:41:47;0.98;;;0.90;;
13807;SDS011;40769;51.512;5.494;2024-03-29T10:44:15;1.30;;;0.88;;
13807;SDS011;40769;51.512;5.494;2024-03-29T10:46:40;0.80;;;0.70;;
13807;SDS011;40769;51.512;5.494;2024-03-29T10:49:07;0.90;;;0.65;;
13807;SDS011;40769;51.512;5.494;2024-03-29T10:51:39;1.33;;;0.80;;
13807;SDS011;40769;51.512;5.494;2024-03-29T10:54:09;1.10;;;0.90;;
13807;SDS011;40769;51.512;5.494;2024-03-29T10:56:36;0.70;;;0.70;;
13807;SDS011;40769;51.512;5.494;2024-03-29T10:59:06;0.73;;;0.57;;
13807;SDS011;40769;51.512;5.494;2024-03-29T11:01:56;1.30;;;1.10;;
13807;SDS011;40769;51.512;5.494;2024-03-29T11:04:27;0.70;;;0.60;;
13807;SDS011;40769;51.512;5.494;2024-03-29T11:06:57;1.17;;;0.70;;
13807;SDS011;40769;51.512;5.494;2024-03-29T11:09:27;0.70;;;0.70;;
13807;SDS011;40769;51.512;5.494;2024-03-29T11:11:55;1.63;;;0.75;;
13807;SDS011;40769;51.512;5.494;2024-03-29T11:14:31;0.98;;;0.70;;
13807;SDS011;40769;51.512;5.494;2024-03-29T11:17:01;0.68;;;0.68;;
13807;SDS011;40769;51.512;5.494;2024-03-29T11:19:28;1.73;;;1.15;;
13807;SDS011;40769;51.512;5.494;2024-03-29T11:21:54;0.93;;;0.88;;
13807;SDS011;40769;51.512;5.494;2024-03-29T11:24:22;0.50;;;0.50;;
13807;SDS011;40769;51.512;5.494;2024-03-29T11:26:49;1.40;;;0.80;;
13807;SDS011;40769;51.512;5.494;2024-03-29T11:29:21;1.67;;;1.00;;
13807;SDS011;40769;51.512;5.494;2024-03-29T11:31:47;1.05;;;0.80;;
13807;SDS011;40769;51.512;5.494;2024-03-29T11:34:20;0.60;;;0.60;;
13807;SDS011;40769;51.512;5.494;2024-03-29T11:36:46;0.70;;;0.70;;
13807;SDS011;40769;51.512;5.494;2024-03-29T11:39:21;1.20;;;0.90;;
13807;SDS011;40769;51.512;5.494;2024-03-29T11:41:48;1.45;;;0.70;;
13807;SDS011;40769;51.512;5.494;2024-03-29T11:44:14;1.80;;;0.70;;
13807;SDS011;40769;51.512;5.494;2024-03-29T11:46:40;0.80;;;0.60;;
13807;SDS011;40769;51.512;5.494;2024-03-29T11:49:06;0.95;;;0.60;;
13807;SDS011;40769;51.512;5.494;2024-03-29T11:51:31;1.15;;;0.95;;
13807;SDS011;40769;51.512;5.494;2024-03-29T11:53:58;0.68;;;0.68;;
13807;SDS011;40769;51.512;5.494;2024-03-29T11:56:25;0.80;;;0.50;;
13807;SDS011;40769;51.512;5.494;2024-03-29T11:58:51;0.80;;;0.70;;
13807;SDS011;40769;51.512;5.494;2024-03-29T12:01:16;0.50;;;0.50;;
13807;SDS011;40769;51.512;5.494;2024-03-29T12:03:43;0.98;;;0.75;;
13807;SDS011;40769;51.512;5.494;2024-03-29T12:06:11;0.70;;;0.50;;
13807;SDS011;40769;51.512;5.494;2024-03-29T12:08:38;0.73;;;0.50;;
13807;SDS011;40769;51.512;5.494;2024-03-29T12:11:06;0.50;;;0.50;;
13807;SDS011;40769;51.512;5.494;2024-03-29T12:13:32;0.45;;;0.40;;
13807;SDS011;40769;51.512;5.494;2024-03-29T12:15:57;0.57;;;0.50;;
13807;SDS011;40769;51.512;5.494;2024-03-29T12:18:24;0.38;;;0.30;;
13807;SDS011;40769;51.512;5.494;2024-03-29T12:20:52;0.50;;;0.40;;
13807;SDS011;40769;51.512;5.494;2024-03-29T12:23:18;0.57;;;0.57;;
13807;SDS011;40769;51.512;5.494;2024-03-29T12:25:45;0.55;;;0.40;;
13807;SDS011;40769;51.512;5.494;2024-03-29T12:28:13;1.17;;;0.50;;
13807;SDS011;40769;51.512;5.494;2024-03-29T12:30:46;0.47;;;0.40;;
13807;SDS011;40769;51.512;5.494;2024-03-29T12:35:48;0.60;;;0.50;;
13807;SDS011;40769;51.512;5.494;2024-03-29T12:38:15;0.63;;;0.60;;
13807;SDS011;40769;51.512;5.494;2024-03-29T12:40:42;0.47;;;0.47;;
13807;SDS011;40769;51.512;5.494;2024-03-29T12:43:10;0.50;;;0.50;;
13807;SDS011;40769;51.512;5.494;2024-03-29T12:45:39;0.50;;;0.50;;
13807;SDS011;40769;51.512;5.494;2024-03-29T12:48:10;0.70;;;0.40;;
13807;SDS011;40769;51.512;5.494;2024-03-29T12:50:43;0.40;;;0.40;;
13807;SDS011;40769;51.512;5.494;2024-03-29T12:53:10;0.40;;;0.40;;
13807;SDS011;40769;51.512;5.494;2024-03-29T12:55:36;0.35;;;0.35;;
13807;SDS011;40769;51.512;5.494;2024-03-29T12:58:06;0.50;;;0.40;;
13807;SDS011;40769;51.512;5.494;2024-03-29T13:00:35;0.80;;;0.57;;
13807;SDS011;40769;51.512;5.494;2024-03-29T13:03:01;0.60;;;0.50;;
13807;SDS011;40769;51.512;5.494;2024-03-29T13:05:27;0.60;;;0.60;;
13807;SDS011;40769;51.512;5.494;2024-03-29T13:07:57;0.60;;;0.50;;
13807;SDS011;40769;51.512;5.494;2024-03-29T13:10:23;1.45;;;0.60;;
13807;SDS011;40769;51.512;5.494;2024-03-29T13:12:49;0.52;;;0.52;;
13807;SDS011;40769;51.512;5.494;2024-03-29T13:15:21;1.48;;;0.60;;
13807;SDS011;40769;51.512;5.494;2024-03-29T13:17:50;0.57;;;0.52;;
13807;SDS011;40769;51.512;5.494;2024-03-29T13:20:16;0.57;;;0.57;;
13807;SDS011;40769;51.512;5.494;2024-03-29T13:22:43;0.80;;;0.52;;
13807;SDS011;40769;51.512;5.494;2024-03-29T13:25:14;0.40;;;0.40;;
13807;SDS011;40769;51.512;5.494;2024-03-29T13:27:43;0.75;;;0.55;;
13807;SDS011;40769;51.512;5.494;2024-03-29T13:30:10;0.63;;;0.50;;
13807;SDS011;40769;51.512;5.494;2024-03-29T13:32:40;0.75;;;0.40;;
13807;SDS011;40769;51.512;5.494;2024-03-29T13:35:07;1.55;;;0.80;;
13807;SDS011;40769;51.512;5.494;2024-03-29T13:37:35;0.68;;;0.40;;
13807;SDS011;40769;51.512;5.494;2024-03-29T13:40:04;0.40;;;0.30;;
13807;SDS011;40769;51.512;5.494;2024-03-29T13:42:33;0.75;;;0.43;;
13807;SDS011;40769;51.512;5.494;2024-03-29T13:44:59;0.93;;;0.70;;
13807;SDS011;40769;51.512;5.494;2024-03-29T13:47:25;1.27;;;0.60;;
13807;SDS011;40769;51.512;5.494;2024-03-29T13:49:51;1.30;;;0.73;;
13807;SDS011;40769;51.512;5.494;2024-03-29T13:52:18;0.70;;;0.60;;
13807;SDS011;40769;51.512;5.494;2024-03-29T13:54:44;0.85;;;0.50;;
13807;SDS011;40769;51.512;5.494;2024-03-29T13:57:11;0.63;;;0.43;;
13807;SDS011;40769;51.512;5.494;2024-03-29T13:59:41;0.68;;;0.57;;
13807;SDS011;40769;51.512;5.494;2024-03-29T14:02:11;0.60;;;0.60;;
13807;SDS011;40769;51.512;5.494;2024-03-29T14:04:41;0.75;;;0.60;;
13807;SDS011;40769;51.512;5.494;2024-03-29T14:07:08;0.60;;;0.50;;
13807;SDS011;40769;51.512;5.494;2024-03-29T14:09:38;1.17;;;0.60;;
13807;SDS011;40769;51.512;5.494;2024-03-29T14:12:06;1.13;;;0.70;;
13807;SDS011;40769;51.512;5.494;2024-03-29T14:14:33;1.10;;;0.80;;
13807;SDS011;40769;51.512;5.494;2024-03-29T14:16:59;0.57;;;0.57;;
13807;SDS011;40769;51.512;5.494;2024-03-29T14:19:34;0.60;;;0.60;;
13807;SDS011;40769;51.512;5.494;2024-03-29T14:22:03;0.85;;;0.45;;
13807;SDS011;40769;51.512;5.494;2024-03-29T14:24:30;0.82;;;0.57;;
13807;SDS011;40769;51.512;5.494;2024-03-29T14:26:58;0.50;;;0.50;;
13807;SDS011;40769;51.512;5.494;2024-03-29T14:29:23;0.50;;;0.43;;
13807;SDS011;40769;51.512;5.494;2024-03-29T14:31:49;0.55;;;0.50;;
13807;SDS011;40769;51.512;5.494;2024-03-29T14:34:15;0.73;;;0.50;;
13807;SDS011;40769;51.512;5.494;2024-03-29T14:36:42;0.30;;;0.30;;
13807;SDS011;40769;51.512;5.494;2024-03-29T14:39:08;1.80;;;0.60;;
13807;SDS011;40769;51.512;5.494;2024-03-29T14:41:37;0.70;;;0.40;;
13807;SDS011;40769;51.512;5.494;2024-03-29T14:44:04;1.00;;;0.57;;
13807;SDS011;40769;51.512;5.494;2024-03-29T14:46:33;0.50;;;0.50;;
13807;SDS011;40769;51.512;5.494;2024-03-29T14:49:00;0.65;;;0.40;;